Time;durP1;ratioP1;P1;durP2;ratioP2;P2;SDS_P1;SDS_P2;PMS_P1;PMS_P2;Temp;Humidity;BMP_temperature;BMP_pressure;BME280_temperature;BME280_humidity;BME280_pressure;Samples;Min_cycle;Max_cycle;Signal;HPM_P1;HPM_P2
2022/09/12 00:00:45;;;;;;;12.10;8.40;;;17.20;99.90;;;;;;5064870;28;25073;-75
2022/09/12 00:03:11;;;;;;;9.52;7.35;;;17.20;99.90;;;;;;5066078;28;25070;-75
2022/09/12 00:05:43;;;;;;;11.00;8.07;;;17.20;99.90;;;;;;5063546;28;25123;-77
2022/09/12 00:08:10;;;;;;;14.90;8.18;;;17.20;99.90;;;;;;5060596;28;25069;-76
2022/09/12 00:10:40;;;;;;;11.80;8.27;;;17.10;99.90;;;;;;5063888;28;25081;-76
2022/09/12 00:13:07;;;;;;;11.52;8.05;;;17.10;99.90;;;;;;5060451;28;25094;-77
2022/09/12 00:15:40;;;;;;;13.88;9.43;;;17.10;99.90;;;;;;5052901;28;25103;-77
2022/09/12 00:18:08;;;;;;;12.60;8.32;;;17.00;99.90;;;;;;5064957;28;25080;-75
2022/09/12 00:20:33;;;;;;;12.82;7.88;;;17.00;99.90;;;;;;5064205;28;25121;-76
2022/09/12 00:22:59;;;;;;;14.25;8.60;;;17.00;99.90;;;;;;5055418;28;25074;-75
2022/09/12 00:25:25;;;;;;;14.15;8.60;;;17.10;99.90;;;;;;5052465;28;25077;-75
2022/09/12 00:27:50;;;;;;;12.80;8.38;;;17.10;99.90;;;;;;5067060;28;25065;-75
2022/09/12 00:30:16;;;;;;;13.35;8.55;;;17.00;99.90;;;;;;5060129;28;25069;-76
2022/09/12 00:32:42;;;;;;;15.98;9.15;;;16.90;99.90;;;;;;5055663;28;25133;-75
2022/09/12 00:35:07;;;;;;;10.40;7.80;;;16.90;99.90;;;;;;5053772;28;25078;-75
2022/09/12 00:37:34;;;;;;;12.68;8.15;;;16.90;99.90;;;;;;5060996;28;25067;-77
2022/09/12 00:39:59;;;;;;;13.48;9.05;;;16.90;99.90;;;;;;5056966;28;25073;-74
2022/09/12 00:42:25;;;;;;;12.90;8.77;;;16.90;99.90;;;;;;5062437;28;25148;-75
2022/09/12 00:44:51;;;;;;;13.52;9.05;;;16.80;99.90;;;;;;5060089;28;25069;-76
2022/09/12 00:47:29;;;;;;;15.07;9.35;;;16.80;99.90;;;;;;5063160;28;25134;-76
2022/09/12 00:50:02;;;;;;;14.85;8.55;;;16.80;99.90;;;;;;5064974;28;25082;-76
2022/09/12 00:52:36;;;;;;;13.77;9.27;;;16.80;99.90;;;;;;5060288;28;25152;-75
2022/09/12 00:55:16;;;;;;;13.00;8.73;;;16.80;99.90;;;;;;5048753;28;25129;-76
2022/09/12 00:57:55;;;;;;;15.43;9.32;;;16.80;99.90;;;;;;5061363;28;25069;-74
2022/09/12 01:00:23;;;;;;;14.32;9.32;;;16.80;99.90;;;;;;5065852;28;25086;-76
2022/09/12 01:02:53;;;;;;;13.90;8.63;;;16.80;99.90;;;;;;5062475;28;25072;-74
2022/09/12 01:05:21;;;;;;;20.13;9.93;;;16.90;99.90;;;;;;5062931;28;25050;-75
2022/09/12 01:07:48;;;;;;;17.55;9.50;;;16.90;99.90;;;;;;5066704;28;25115;-76
2022/09/12 01:10:15;;;;;;;18.50;10.75;;;16.90;99.90;;;;;;5056173;28;25052;-76
2022/09/12 01:12:43;;;;;;;15.77;11.02;;;16.90;99.90;;;;;;5054776;28;25101;-75
2022/09/12 01:15:09;;;;;;;15.20;9.90;;;16.80;99.90;;;;;;5059821;28;25070;-75
2022/09/12 01:18:09;;;;;;;14.27;9.82;;;16.70;99.90;;;;;;5064907;28;25150;-75
2022/09/12 01:20:56;;;;;;;14.57;8.65;;;16.70;99.90;;;;;;5054098;28;25080;-75
2022/09/12 01:23:43;;;;;;;18.90;11.80;;;16.80;99.90;;;;;;5016571;28;25142;-76
2022/09/12 01:26:48;;;;;;;19.85;10.60;;;16.80;99.90;;;;;;5051482;28;25073;-76
2022/09/12 01:29:39;;;;;;;16.50;10.00;;;16.70;99.90;;;;;;5057377;28;25070;-76
2022/09/12 01:32:20;;;;;;;15.75;10.13;;;16.70;99.90;;;;;;5053478;28;25117;-76
2022/09/12 01:34:52;;;;;;;19.73;10.07;;;16.70;99.90;;;;;;5058978;28;25068;-76
2022/09/12 01:38:05;;;;;;;18.05;10.48;;;16.70;99.90;;;;;;5050382;28;25058;-77
2022/09/12 01:40:53;;;;;;;17.20;10.55;;;16.70;99.90;;;;;;5002655;28;25085;-76
2022/09/12 01:43:49;;;;;;;19.92;11.45;;;16.80;99.90;;;;;;5065953;28;25105;-76
2022/09/12 01:46:16;;;;;;;18.00;10.38;;;16.80;99.90;;;;;;5059546;28;25085;-76
2022/09/12 01:49:01;;;;;;;20.23;11.93;;;16.80;99.90;;;;;;5065120;28;25068;-75
2022/09/12 01:51:41;;;;;;;19.00;11.68;;;16.60;99.90;;;;;;5053868;28;25078;-77
2022/09/12 01:54:19;;;;;;;24.98;11.25;;;16.60;99.90;;;;;;5063310;28;25063;-75
2022/09/12 01:56:47;;;;;;;18.75;11.35;;;16.50;99.90;;;;;;5058048;28;25056;-75
2022/09/12 01:59:25;;;;;;;19.60;11.80;;;16.60;99.90;;;;;;5062928;28;25074;-75
2022/09/12 02:02:12;;;;;;;17.80;11.68;;;16.60;99.90;;;;;;5054187;28;25055;-74
2022/09/12 02:04:47;;;;;;;20.45;12.40;;;16.60;99.90;;;;;;5061426;28;25052;-76
2022/09/12 02:07:34;;;;;;;17.45;11.50;;;16.60;99.90;;;;;;5072053;28;25136;-77
2022/09/12 02:10:07;;;;;;;22.55;12.40;;;16.50;99.90;;;;;;5063809;28;25110;-76
2022/09/12 02:12:43;;;;;;;18.38;12.50;;;16.50;99.90;;;;;;5054185;28;25088;-76
2022/09/12 02:15:11;;;;;;;21.55;12.55;;;16.50;99.90;;;;;;5050139;28;25136;-76
2022/09/12 02:17:44;;;;;;;19.45;12.35;;;16.50;99.90;;;;;;5057873;28;25073;-76
2022/09/12 02:20:14;;;;;;;19.52;11.95;;;16.50;99.90;;;;;;5067158;28;25062;-77
2022/09/12 02:22:42;;;;;;;23.38;12.10;;;16.40;99.90;;;;;;5063504;28;25079;-76
2022/09/12 02:25:11;;;;;;;23.17;12.43;;;16.40;99.90;;;;;;5054694;28;25092;-78
2022/09/12 02:27:41;;;;;;;23.58;13.18;;;16.50;99.90;;;;;;5062320;28;25080;-76
2022/09/12 02:30:08;;;;;;;20.33;11.45;;;16.50;99.90;;;;;;5066476;28;25090;-76
2022/09/12 02:33:03;;;;;;;20.40;12.18;;;16.50;99.90;;;;;;5074929;28;25076;-76
2022/09/12 02:35:52;;;;;;;20.38;12.18;;;16.50;99.90;;;;;;5054654;28;25083;-77
2022/09/12 02:38:26;;;;;;;20.83;10.57;;;16.60;99.90;;;;;;5068220;28;25069;-77
2022/09/12 02:40:52;;;;;;;21.10;12.45;;;16.60;99.90;;;;;;5076609;28;25118;-77
2022/09/12 02:43:18;;;;;;;20.63;11.88;;;16.60;99.90;;;;;;5069100;28;25057;-78
2022/09/12 02:45:44;;;;;;;20.30;12.48;;;16.60;99.90;;;;;;5066765;28;25067;-76
2022/09/12 02:48:13;;;;;;;21.35;11.00;;;16.60;99.90;;;;;;5079820;28;25061;-77
2022/09/12 02:50:40;;;;;;;18.95;12.15;;;16.70;99.90;;;;;;5062283;28;25059;-76
2022/09/12 02:53:07;;;;;;;16.95;10.95;;;16.70;99.90;;;;;;5070013;28;25072;-76
2022/09/12 02:55:34;;;;;;;21.83;13.13;;;16.70;99.90;;;;;;5066181;28;25071;-76
2022/09/12 02:58:03;;;;;;;20.52;11.55;;;16.80;99.90;;;;;;5068956;28;25072;-75
2022/09/12 03:00:58;;;;;;;21.92;11.70;;;16.80;99.90;;;;;;5069805;28;25075;-74
2022/09/12 03:03:43;;;;;;;18.98;11.90;;;16.80;99.90;;;;;;5058819;28;25090;-75
2022/09/12 03:06:34;;;;;;;18.20;12.38;;;16.80;99.90;;;;;;5059834;28;25070;-76
2022/09/12 03:09:35;;;;;;;16.65;11.18;;;16.90;99.90;;;;;;5067047;28;25089;-77
2022/09/12 03:12:27;;;;;;;18.92;11.77;;;17.00;99.90;;;;;;5059008;28;25144;-76
2022/09/12 03:15:33;;;;;;;20.42;11.65;;;17.00;99.90;;;;;;5073282;28;25125;-78
2022/09/12 03:18:26;;;;;;;19.05;11.95;;;16.90;99.90;;;;;;5065085;28;25065;-77
2022/09/12 03:21:08;;;;;;;;;;;16.90;99.90;;;;;;5078043;28;25054;-77
2022/09/12 03:23:45;;;;;;;16.77;10.80;;;16.90;99.90;;;;;;5075409;28;25074;-77
2022/09/12 03:26:43;;;;;;;18.80;12.07;;;16.90;99.90;;;;;;5072327;28;25062;-76
2022/09/12 03:29:10;;;;;;;18.67;11.13;;;16.90;99.90;;;;;;5061837;28;25055;-76
2022/09/12 03:31:36;;;;;;;18.42;11.07;;;17.00;99.90;;;;;;5065562;28;25056;-76
2022/09/12 03:34:02;;;;;;;20.65;13.18;;;16.90;99.90;;;;;;5069627;28;25146;-77
2022/09/12 03:36:29;;;;;;;22.20;12.25;;;16.80;99.90;;;;;;5066884;28;25049;-76
2022/09/12 03:38:55;;;;;;;22.10;13.10;;;16.90;99.90;;;;;;5060719;28;25052;-77
2022/09/12 03:41:21;;;;;;;26.63;13.40;;;16.90;99.90;;;;;;5067922;28;25060;-76
2022/09/12 03:43:47;;;;;;;21.95;12.93;;;16.90;99.90;;;;;;5070800;28;25104;-76
2022/09/12 03:46:13;;;;;;;20.27;12.77;;;16.90;99.90;;;;;;5069030;28;25147;-75
2022/09/12 03:48:40;;;;;;;25.65;13.50;;;16.90;99.90;;;;;;5053955;28;25072;-76
2022/09/12 03:51:08;;;;;;;22.67;13.45;;;16.90;99.90;;;;;;5065089;28;25056;-77
2022/09/12 03:53:34;;;;;;;22.25;12.02;;;17.00;99.90;;;;;;5056690;28;25136;-78
2022/09/12 03:56:04;;;;;;;27.33;14.88;;;17.00;99.90;;;;;;5068319;28;25094;-76
2022/09/12 03:58:30;;;;;;;22.50;12.02;;;16.90;99.90;;;;;;5069321;28;25052;-76
2022/09/12 04:00:55;;;;;;;19.25;12.57;;;17.00;99.90;;;;;;5073460;28;25065;-77
2022/09/12 04:03:21;;;;;;;21.42;12.93;;;17.00;99.90;;;;;;5067070;28;25055;-76
2022/09/12 04:05:47;;;;;;;25.00;13.35;;;16.90;99.90;;;;;;5072149;28;25089;-77
2022/09/12 04:08:13;;;;;;;24.67;13.85;;;16.90;99.90;;;;;;5063735;28;25066;-77
2022/09/12 04:10:39;;;;;;;21.50;12.63;;;16.90;99.90;;;;;;5063828;28;25143;-77
2022/09/12 04:13:05;;;;;;;23.83;14.20;;;16.80;99.90;;;;;;5060314;28;25081;-77
2022/09/12 04:15:31;;;;;;;24.75;13.55;;;16.80;99.90;;;;;;5049433;28;25204;-76
2022/09/12 04:17:57;;;;;;;21.08;13.13;;;16.90;99.90;;;;;;5064573;28;25053;-78
2022/09/12 04:20:22;;;;;;;22.88;14.48;;;16.90;99.90;;;;;;5057691;28;25073;-75
2022/09/12 04:22:48;;;;;;;22.92;12.85;;;16.90;99.90;;;;;;5066865;28;25069;-77
2022/09/12 04:25:14;;;;;;;24.23;13.13;;;16.90;99.90;;;;;;5061896;28;25053;-75
2022/09/12 04:27:39;;;;;;;23.25;14.45;;;16.90;99.90;;;;;;5060323;28;25060;-77
2022/09/12 04:30:06;;;;;;;23.25;13.77;;;16.90;99.90;;;;;;5068349;28;25072;-76
2022/09/12 04:32:31;;;;;;;24.77;14.65;;;16.80;99.90;;;;;;5066348;28;25076;-76
2022/09/12 04:34:57;;;;;;;26.83;14.65;;;16.80;99.90;;;;;;5064147;28;25080;-76
2022/09/12 04:37:23;;;;;;;27.15;14.02;;;16.80;99.90;;;;;;5066440;28;25076;-77
2022/09/12 04:39:50;;;;;;;29.13;13.80;;;16.70;99.90;;;;;;5056116;28;25171;-77
2022/09/12 04:42:16;;;;;;;24.30;13.73;;;16.80;99.90;;;;;;5053594;28;25075;-77
2022/09/12 04:44:41;;;;;;;25.15;14.10;;;16.80;99.90;;;;;;5073309;28;25054;-78
2022/09/12 04:47:07;;;;;;;28.27;14.77;;;16.80;99.90;;;;;;5063802;28;25120;-77
2022/09/12 04:49:33;;;;;;;22.85;14.25;;;16.70;99.90;;;;;;5061249;28;25158;-77
2022/09/12 04:51:58;;;;;;;22.40;13.32;;;16.70;99.90;;;;;;5064623;28;25053;-75
2022/09/12 04:54:24;;;;;;;23.23;14.27;;;16.60;99.90;;;;;;5063787;28;25080;-76
2022/09/12 04:56:51;;;;;;;28.55;14.27;;;16.60;99.90;;;;;;5068198;28;25100;-77
2022/09/12 04:59:19;;;;;;;27.10;14.20;;;16.60;99.90;;;;;;5064559;28;25133;-75
2022/09/12 05:01:45;;;;;;;30.33;14.88;;;16.60;99.90;;;;;;5057462;28;25078;-77
2022/09/12 05:04:12;;;;;;;25.15;14.48;;;16.70;99.90;;;;;;5070166;28;25100;-76
2022/09/12 05:06:38;;;;;;;28.42;15.00;;;16.70;99.90;;;;;;5072087;28;25078;-76
2022/09/12 05:09:07;;;;;;;31.65;15.07;;;16.60;99.90;;;;;;5061606;28;25098;-75
2022/09/12 05:11:38;;;;;;;38.15;17.40;;;16.60;99.90;;;;;;5058193;28;25142;-77
2022/09/12 05:14:04;;;;;;;26.35;14.85;;;16.50;99.90;;;;;;5068620;28;25156;-77
2022/09/12 05:16:31;;;;;;;24.35;14.48;;;16.60;99.90;;;;;;5050804;28;25074;-75
2022/09/12 05:18:57;;;;;;;28.83;15.50;;;16.60;99.90;;;;;;5067085;28;25119;-74
2022/09/12 05:21:24;;;;;;;23.70;14.65;;;16.60;99.90;;;;;;5069716;28;25067;-73
2022/09/12 05:23:54;;;;;;;29.08;15.07;;;16.60;99.90;;;;;;5064743;28;25087;-75
2022/09/12 05:26:21;;;;;;;25.65;15.23;;;16.50;99.90;;;;;;5063870;28;25066;-75
2022/09/12 05:28:48;;;;;;;30.27;17.30;;;16.50;99.90;;;;;;5076002;28;25062;-77
2022/09/12 05:31:15;;;;;;;30.33;15.20;;;16.60;99.90;;;;;;5065943;28;25064;-75
2022/09/12 05:33:43;;;;;;;34.33;16.33;;;16.70;99.90;;;;;;5069192;28;25080;-76
2022/09/12 05:36:12;;;;;;;29.95;16.05;;;16.60;99.90;;;;;;5080092;28;25077;-76
2022/09/12 05:38:38;;;;;;;28.60;15.07;;;16.50;99.90;;;;;;5062639;28;25160;-74
2022/09/12 05:41:05;;;;;;;26.85;15.75;;;16.50;99.90;;;;;;5071210;28;25062;-76
2022/09/12 05:43:31;;;;;;;27.92;15.88;;;16.50;99.90;;;;;;5078291;28;25090;-76
2022/09/12 05:46:15;;;;;;;30.73;16.38;;;16.60;99.90;;;;;;5083506;28;25077;-75
2022/09/12 05:48:42;;;;;;;28.17;15.88;;;16.60;99.90;;;;;;5073879;28;25086;-76
2022/09/12 05:51:18;;;;;;;29.02;15.73;;;16.60;99.90;;;;;;5064187;28;25132;-76
2022/09/12 05:53:45;;;;;;;26.95;16.13;;;16.60;99.90;;;;;;5066018;28;25148;-76
2022/09/12 05:56:13;;;;;;;37.40;17.55;;;16.50;99.90;;;;;;5067644;28;25065;-74
2022/09/12 05:58:42;;;;;;;30.42;17.30;;;16.60;99.90;;;;;;5070503;28;25063;-75
2022/09/12 06:01:11;;;;;;;27.52;16.45;;;16.50;99.90;;;;;;5071628;28;25223;-74
2022/09/12 06:03:43;;;;;;;33.75;15.93;;;16.60;99.90;;;;;;5058222;28;25056;-75
2022/09/12 06:06:12;;;;;;;;;;;16.60;99.90;;;;;;5064019;28;25079;-75
2022/09/12 06:08:39;;;;;;;29.65;16.15;;;16.60;99.90;;;;;;5059870;28;24059;-76
2022/09/12 06:11:06;;;;;;;29.73;16.98;;;16.50;99.90;;;;;;5061927;28;25064;-77
2022/09/12 06:13:38;;;;;;;31.05;17.30;;;16.50;99.90;;;;;;5063746;28;25144;-76
2022/09/12 06:16:09;;;;;;;30.40;16.98;;;16.60;99.90;;;;;;5056951;28;25098;-76
2022/09/12 06:18:36;;;;;;;32.63;17.40;;;16.70;99.90;;;;;;5061848;28;25065;-75
2022/09/12 06:21:03;;;;;;;26.60;15.88;;;16.70;99.90;;;;;;5061578;28;25150;-75
2022/09/12 06:23:29;;;;;;;28.92;16.38;;;16.80;99.90;;;;;;5063142;28;25066;-76
2022/09/12 06:25:54;;;;;;;30.25;16.65;;;16.80;99.90;;;;;;5071107;28;25129;-75
2022/09/12 06:28:20;;;;;;;32.03;18.80;;;16.80;99.90;;;;;;5081803;28;25069;-74
2022/09/12 06:30:45;;;;;;;32.17;17.10;;;16.80;99.90;;;;;;5086511;28;25101;-75
2022/09/12 06:33:11;;;;;;;33.63;17.95;;;16.80;99.90;;;;;;5096074;28;25095;-77
2022/09/12 06:35:37;;;;;;;34.70;19.23;;;16.80;99.90;;;;;;5093201;28;25066;-78
2022/09/12 06:38:04;;;;;;;30.70;18.35;;;16.70;99.90;;;;;;5083545;28;25078;-76
2022/09/12 06:40:30;;;;;;;33.40;19.15;;;16.80;99.90;;;;;;5075539;28;25061;-75
2022/09/12 06:42:56;;;;;;;40.20;19.88;;;16.80;99.90;;;;;;5066790;28;25073;-76
2022/09/12 06:45:21;;;;;;;32.45;19.55;;;16.80;99.90;;;;;;5069223;28;25066;-76
2022/09/12 06:47:47;;;;;;;36.00;20.70;;;16.80;99.90;;;;;;5070145;28;25085;-75
2022/09/12 06:50:13;;;;;;;34.20;18.88;;;16.70;99.90;;;;;;5069391;28;25060;-75
2022/09/12 06:52:38;;;;;;;37.78;20.77;;;16.70;99.90;;;;;;5072176;28;25169;-74
2022/09/12 06:55:04;;;;;;;38.45;21.10;;;16.80;99.90;;;;;;5066146;28;25075;-76
2022/09/12 06:57:31;;;;;;;33.78;19.67;;;16.90;99.90;;;;;;5065759;28;25050;-75
2022/09/12 06:59:58;;;;;;;31.60;18.88;;;16.90;99.90;;;;;;5070227;28;25084;-77
2022/09/12 07:02:24;;;;;;;37.78;21.63;;;17.00;99.90;;;;;;5072382;28;25063;-75
2022/09/12 07:04:50;;;;;;;37.72;19.80;;;17.00;99.90;;;;;;5065881;28;25147;-76
2022/09/12 07:07:16;;;;;;;38.40;20.83;;;17.00;99.90;;;;;;5066758;28;25134;-74
2022/09/12 07:09:42;;;;;;;38.05;20.42;;;17.10;99.90;;;;;;5066962;28;25066;-76
2022/09/12 07:12:07;;;;;;;39.83;20.73;;;17.10;99.90;;;;;;5057030;28;25165;-74
2022/09/12 07:14:33;;;;;;;31.35;19.08;;;17.00;99.90;;;;;;5063287;28;25061;-75
2022/09/12 07:16:58;;;;;;;34.25;19.80;;;17.00;99.90;;;;;;5053451;28;25072;-74
2022/09/12 07:19:24;;;;;;;32.47;18.75;;;17.10;99.90;;;;;;5065597;28;25149;-76
2022/09/12 07:21:50;;;;;;;32.95;19.08;;;17.20;99.90;;;;;;5062048;28;25064;-75
2022/09/12 07:24:15;;;;;;;33.67;19.67;;;17.40;99.90;;;;;;5060939;28;25093;-76
2022/09/12 07:26:41;;;;;;;32.72;18.58;;;17.50;99.90;;;;;;5068882;28;25083;-75
2022/09/12 07:29:11;;;;;;;34.05;19.15;;;17.50;99.90;;;;;;5066810;28;25162;-76
2022/09/12 07:31:37;;;;;;;35.22;20.13;;;17.40;99.90;;;;;;5077099;28;25063;-76
2022/09/12 07:34:05;;;;;;;40.00;19.50;;;17.50;99.90;;;;;;5055514;28;25056;-77
2022/09/12 07:36:31;;;;;;;30.77;18.30;;;17.50;99.90;;;;;;5064782;28;25083;-74
2022/09/12 07:38:57;;;;;;;32.65;18.50;;;17.50;99.90;;;;;;5072143;28;25064;-75
2022/09/12 07:41:25;;;;;;;28.27;17.02;;;17.60;99.90;;;;;;5065616;28;25157;-75
2022/09/12 07:43:53;;;;;;;30.05;17.33;;;17.80;99.90;;;;;;5072807;28;25061;-76
2022/09/12 07:46:19;;;;;;;30.60;15.95;;;17.90;99.90;;;;;;5057981;28;25095;-75
2022/09/12 07:48:49;;;;;;;29.00;17.50;;;17.80;99.90;;;;;;5061196;28;25087;-75
2022/09/12 07:51:14;;;;;;;29.50;18.00;;;17.80;99.90;;;;;;5064966;28;25057;-75
2022/09/12 07:53:42;;;;;;;29.35;16.58;;;17.90;99.90;;;;;;5067171;28;25094;-75
2022/09/12 07:56:11;;;;;;;30.48;17.70;;;18.00;99.90;;;;;;5064712;28;25052;-75
2022/09/12 07:58:39;;;;;;;28.50;17.60;;;18.10;99.90;;;;;;5060049;28;25148;-74
2022/09/12 08:01:11;;;;;;;29.25;16.85;;;18.20;99.90;;;;;;5060821;28;25097;-77
2022/09/12 08:03:38;;;;;;;27.88;16.60;;;18.50;99.90;;;;;;5061494;28;25071;-74
2022/09/12 08:06:06;;;;;;;28.10;16.20;;;18.50;99.90;;;;;;5063011;28;25072;-75
2022/09/12 08:08:32;;;;;;;31.13;16.52;;;18.70;99.90;;;;;;5060136;28;25104;-75
2022/09/12 08:11:00;;;;;;;26.08;15.38;;;18.70;99.90;;;;;;5060720;28;25068;-75
2022/09/12 08:13:29;;;;;;;22.33;13.23;;;18.80;99.90;;;;;;5056758;28;25082;-76
2022/09/12 08:15:58;;;;;;;24.38;15.10;;;19.00;99.90;;;;;;5057429;28;25065;-74
2022/09/12 08:18:28;;;;;;;25.52;14.05;;;19.10;99.90;;;;;;5059105;28;25064;-77
2022/09/12 08:21:04;;;;;;;23.98;14.48;;;19.20;99.90;;;;;;5064503;28;25083;-75
2022/09/12 08:23:30;;;;;;;22.63;12.85;;;19.10;99.90;;;;;;5054547;28;25105;-75
2022/09/12 08:26:01;;;;;;;19.42;13.07;;;19.20;99.90;;;;;;5055819;28;25056;-76
2022/09/12 08:28:29;;;;;;;22.60;12.75;;;19.40;99.90;;;;;;5062015;28;25054;-74
2022/09/12 08:31:09;;;;;;;22.83;13.23;;;19.50;99.90;;;;;;5057331;28;25158;-76
2022/09/12 08:33:36;;;;;;;21.65;13.05;;;19.50;99.90;;;;;;5058615;28;25056;-75
2022/09/12 08:36:13;;;;;;;18.63;11.27;;;19.70;99.90;;;;;;5056591;28;25078;-77
2022/09/12 08:38:44;;;;;;;21.52;12.57;;;20.20;99.90;;;;;;5068504;28;25052;-74
2022/09/12 08:41:47;;;;;;;18.60;11.77;;;20.60;99.90;;;;;;5061166;28;25101;-75
2022/09/12 08:44:28;;;;;;;19.70;10.30;;;20.80;99.90;;;;;;5053376;28;25168;-75
2022/09/12 08:47:14;;;;;;;15.65;10.32;;;20.90;99.90;;;;;;5057687;28;25060;-79
2022/09/12 08:49:56;;;;;;;17.50;10.15;;;21.50;99.90;;;;;;5061649;28;25092;-75
2022/09/12 08:52:40;;;;;;;18.33;9.50;;;21.60;99.90;;;;;;5064025;28;25099;-77
2022/09/12 08:55:22;;;;;;;13.88;8.63;;;21.70;99.90;;;;;;5072184;28;25064;-76
2022/09/12 08:57:47;;;;;;;18.98;11.23;;;21.70;99.90;;;;;;5058611;28;25063;-76
2022/09/12 09:00:15;;;;;;;16.45;10.68;;;21.80;99.90;;;;;;5063327;28;25131;-75
2022/09/12 09:03:07;;;;;;;13.25;8.40;;;22.10;99.90;;;;;;5054307;28;25139;-76
2022/09/12 09:05:56;;;;;;;12.75;7.10;;;22.20;99.90;;;;;;5062787;28;25075;-75
2022/09/12 09:08:29;;;;;;;11.43;6.75;;;22.20;99.90;;;;;;5063211;28;25073;-74
2022/09/12 09:11:04;;;;;;;10.68;6.55;;;22.30;99.90;;;;;;5056877;28;25104;-73
2022/09/12 09:16:38;;;;;;;12.13;5.95;;;22.00;99.90;;;;;;5057370;28;25095;-76
2022/09/12 09:19:14;;;;;;;10.57;6.07;;;22.30;99.90;;;;;;5060538;28;25072;-73
2022/09/12 09:22:05;;;;;;;7.47;4.95;;;22.40;99.90;;;;;;5069932;28;25101;-74
2022/09/12 09:24:52;;;;;;;10.70;6.35;;;22.70;99.90;;;;;;5059626;28;25138;-74
2022/09/12 09:27:20;;;;;;;11.63;7.13;;;22.70;99.90;;;;;;5075386;28;25113;-73
2022/09/12 09:29:53;;;;;;;9.77;6.70;;;22.30;99.90;;;;;;5071800;28;25100;-73
2022/09/12 09:32:30;;;;;;;8.38;6.07;;;22.00;99.90;;;;;;5062086;28;25136;-74
2022/09/12 09:34:56;;;;;;;9.35;5.72;;;21.80;99.90;;;;;;5070505;28;25069;-76
2022/09/12 09:37:40;;;;;;;8.70;5.70;;;21.70;99.90;;;;;;5065389;28;25070;-75
2022/09/12 09:40:27;;;;;;;6.97;5.30;;;21.60;99.90;;;;;;5062398;28;25159;-74
2022/09/12 09:43:05;;;;;;;8.32;6.38;;;21.60;99.90;;;;;;5059063;28;25179;-74
2022/09/12 09:45:31;;;;;;;7.03;5.15;;;21.50;99.90;;;;;;5059412;28;25086;-74
2022/09/12 09:48:02;;;;;;;10.25;6.30;;;21.70;99.90;;;;;;5068191;28;25075;-74
2022/09/12 09:50:28;;;;;;;9.20;6.32;;;21.60;99.90;;;;;;5071066;28;25056;-73
2022/09/12 09:52:57;;;;;;;8.90;6.05;;;21.50;99.90;;;;;;5058732;28;25052;-74
2022/09/12 09:55:31;;;;;;;8.57;5.65;;;21.60;99.90;;;;;;5067745;28;25077;-74
2022/09/12 09:57:56;;;;;;;10.88;6.30;;;21.60;99.90;;;;;;5055141;28;25061;-73
2022/09/12 10:00:32;;;;;;;10.82;5.82;;;21.60;99.90;;;;;;5062126;28;25055;-75
2022/09/12 10:03:11;;;;;;;10.93;6.43;;;21.60;99.90;;;;;;5069929;28;25053;-75
2022/09/12 10:05:48;;;;;;;11.80;7.20;;;21.60;99.90;;;;;;5059625;28;25074;-74
2022/09/12 10:08:23;;;;;;;12.63;6.57;;;21.50;99.90;;;;;;5053913;28;25051;-74
2022/09/12 10:11:04;;;;;;;12.90;7.22;;;21.50;99.90;;;;;;5056607;28;25160;-74
2022/09/12 10:13:41;;;;;;;9.68;7.45;;;21.40;99.90;;;;;;5060072;28;25048;-74
2022/09/12 10:16:20;;;;;;;12.30;6.88;;;21.40;99.90;;;;;;5054462;28;25064;-75
2022/09/12 10:18:48;;;;;;;9.80;6.45;;;21.40;99.90;;;;;;5061144;28;25069;-74
2022/09/12 10:21:28;;;;;;;8.55;6.05;;;21.60;99.90;;;;;;5052270;28;25099;-75
2022/09/12 10:24:23;;;;;;;11.23;7.45;;;21.60;99.90;;;;;;5053326;28;25090;-74
2022/09/12 10:27:11;;;;;;;11.73;6.03;;;21.80;99.90;;;;;;5057046;28;25065;-75
2022/09/12 10:29:54;;;;;;;9.15;6.45;;;21.80;99.90;;;;;;5062273;28;25063;-76
2022/09/12 10:32:37;;;;;;;9.50;5.78;;;21.80;99.90;;;;;;5061054;28;25503;-75
2022/09/12 10:35:15;;;;;;;5.82;4.60;;;21.70;99.90;;;;;;5048969;28;25102;-74
2022/09/12 10:38:01;;;;;;;6.90;4.22;;;21.80;99.90;;;;;;5050076;28;25096;-74
2022/09/12 10:40:31;;;;;;;6.25;4.18;;;22.00;99.90;;;;;;5051582;28;25092;-75
2022/09/12 10:43:03;;;;;;;8.02;4.78;;;22.20;99.90;;;;;;5056124;28;25064;-74
2022/09/12 10:45:31;;;;;;;7.25;5.15;;;22.30;99.90;;;;;;5048434;28;25052;-75
2022/09/12 10:47:59;;;;;;;7.20;4.65;;;22.20;99.90;;;;;;5070286;28;25057;-74
2022/09/12 10:50:37;;;;;;;6.13;4.43;;;22.30;99.90;;;;;;5070796;28;25070;-75
2022/09/12 10:53:24;;;;;;;7.72;4.72;;;22.40;99.90;;;;;;5057952;28;25074;-75
2022/09/12 10:55:58;;;;;;;6.32;4.38;;;22.30;99.90;;;;;;5071433;28;25069;-73
2022/09/12 10:58:47;;;;;;;7.70;4.68;;;22.30;99.90;;;;;;5064989;28;25116;-73
2022/09/12 11:01:31;;;;;;;11.27;4.75;;;22.60;99.90;;;;;;5061203;28;25070;-75
2022/09/12 11:04:23;;;;;;;6.30;4.18;;;22.70;99.90;;;;;;5068794;28;25135;-74
2022/09/12 11:07:08;;;;;;;6.93;4.63;;;22.70;99.90;;;;;;5085260;28;25103;-74
2022/09/12 11:10:06;;;;;;;5.15;3.95;;;22.60;99.90;;;;;;5069797;28;25087;-73
2022/09/12 11:12:37;;;;;;;9.40;5.57;;;22.80;99.90;;;;;;5067036;28;25126;-74
2022/09/12 11:15:29;;;;;;;5.95;3.92;;;22.90;99.90;;;;;;5073676;28;25058;-74
2022/09/12 11:18:19;;;;;;;6.75;3.95;;;23.10;99.90;;;;;;5075975;28;25096;-74
2022/09/12 11:21:22;;;;;;;6.75;3.60;;;23.30;99.90;;;;;;5086551;28;25110;-74
2022/09/12 11:24:45;;;;;;;6.38;4.00;;;23.40;99.90;;;;;;5060967;28;25067;-74
2022/09/12 11:27:22;;;;;;;5.07;4.10;;;23.60;99.90;;;;;;5040661;28;25094;-74
2022/09/12 11:30:13;;;;;;;6.22;3.63;;;23.60;99.90;;;;;;5045834;28;25107;-74
2022/09/12 11:33:06;;;;;;;4.53;3.63;;;23.90;99.90;;;;;;5062438;28;25097;-72
2022/09/12 11:35:34;;;;;;;6.57;3.95;;;24.00;99.90;;;;;;5066426;28;25061;-75
2022/09/12 11:38:36;;;;;;;5.45;3.80;;;24.40;99.90;;;;;;5069069;28;25118;-74
2022/09/12 11:41:06;;;;;;;5.60;3.50;;;25.00;99.90;;;;;;5068999;28;25098;-74
2022/09/12 11:43:50;;;;;;;3.60;2.95;;;25.40;99.90;;;;;;5071173;28;25063;-72
2022/09/12 11:46:22;;;;;;;5.22;3.80;;;25.30;99.90;;;;;;5070001;28;25126;-75
2022/09/12 11:49:05;;;;;;;17.58;8.52;;;25.20;99.90;;;;;;5063198;28;25100;-73
2022/09/12 11:51:52;;;;;;;5.75;3.72;;;25.40;99.90;;;;;;5066351;28;25061;-73
2022/09/12 11:54:28;;;;;;;7.15;2.83;;;25.60;99.90;;;;;;5072530;28;25162;-73
2022/09/12 11:57:25;;;;;;;3.47;2.40;;;25.60;99.90;;;;;;5065862;28;25061;-73
2022/09/12 12:00:06;;;;;;;4.53;2.38;;;25.50;99.90;;;;;;5060897;28;25076;-75
2022/09/12 12:02:49;;;;;;;2.83;2.27;;;25.80;99.90;;;;;;5069845;28;25108;-73
2022/09/12 12:05:19;;;;;;;3.67;2.70;;;26.30;99.90;;;;;;5063812;28;25061;-74
2022/09/12 12:07:56;;;;;;;4.40;2.95;;;26.30;99.90;;;;;;5058182;28;25142;-74
2022/09/12 12:10:33;;;;;;;2.63;2.05;;;26.10;99.90;;;;;;5054644;28;25392;-73
2022/09/12 12:13:02;;;;;;;2.53;2.05;;;26.20;99.90;;;;;;5062991;28;25093;-73
2022/09/12 12:15:29;;;;;;;2.53;2.05;;;26.40;99.90;;;;;;5060203;28;25100;-74
2022/09/12 12:18:01;;;;;;;3.58;2.60;;;26.60;99.90;;;;;;5055086;28;25057;-72
2022/09/12 12:20:28;;;;;;;3.55;2.60;;;26.90;99.90;;;;;;5054269;28;25068;-76
2022/09/12 12:22:54;;;;;;;3.05;2.38;;;26.80;99.90;;;;;;5054491;28;25061;-75
2022/09/12 12:25:50;;;;;;;3.72;2.40;;;26.80;99.90;;;;;;5067284;28;25112;-76
2022/09/12 12:28:43;;;;;;;4.00;2.88;;;26.70;99.90;;;;;;5059406;28;25063;-74
2022/09/12 12:31:09;;;;;;;3.22;2.28;;;26.40;99.90;;;;;;5056243;28;25146;-76
2022/09/12 12:33:38;;;;;;;3.00;2.15;;;26.60;99.90;;;;;;5061948;28;25097;-75
2022/09/12 12:36:06;;;;;;;4.43;2.00;;;26.50;99.90;;;;;;5058015;28;25078;-75
2022/09/12 12:38:37;;;;;;;1.95;1.75;;;26.50;99.90;;;;;;5059181;28;25074;-75
2022/09/12 12:41:18;;;;;;;3.00;2.17;;;26.50;99.90;;;;;;5057665;28;25110;-75
2022/09/12 12:43:52;;;;;;;2.78;2.10;;;26.70;99.90;;;;;;5084962;28;25070;-77
2022/09/12 12:46:22;;;;;;;3.55;2.13;;;26.60;99.90;;;;;;5060699;28;25114;-76
2022/09/12 12:48:56;;;;;;;6.20;2.30;;;26.70;99.90;;;;;;5067289;28;25054;-75
2022/09/12 12:51:27;;;;;;;2.17;2.00;;;26.80;99.90;;;;;;5070033;28;25054;-76
2022/09/12 12:53:54;;;;;;;3.10;2.10;;;27.00;99.90;;;;;;5072173;28;25071;-75
2022/09/12 12:56:33;;;;;;;5.65;3.33;;;26.60;99.90;;;;;;5069645;28;25089;-76
2022/09/12 12:59:02;;;;;;;8.23;2.28;;;26.10;99.90;;;;;;5063380;28;25076;-74
2022/09/12 13:01:29;;;;;;;2.67;2.20;;;26.10;99.90;;;;;;5063820;28;25135;-77
2022/09/12 13:04:13;;;;;;;3.55;2.55;;;26.00;99.90;;;;;;5058475;28;25095;-76
2022/09/12 13:06:42;;;;;;;3.78;1.88;;;26.20;99.90;;;;;;5066212;28;25059;-75